sensor_id;sensor_type;location;lat;lon;timestamp;P1;durP1;ratioP1;P2;durP2;ratioP2
5939;SDS011;2995;-31.998;115.906;2023-07-02T00:01:06;2.03;;;0.83;;
5939;SDS011;2995;-31.998;115.906;2023-07-02T00:03:38;1.42;;;0.80;;
5939;SDS011;2995;-31.998;115.906;2023-07-02T00:06:09;1.65;;;0.90;;
5939;SDS011;2995;-31.998;115.906;2023-07-02T00:08:40;1.67;;;0.88;;
5939;SDS011;2995;-31.998;115.906;2023-07-02T00:11:12;1.73;;;0.80;;
5939;SDS011;2995;-31.998;115.906;2023-07-02T00:13:45;1.20;;;0.90;;
5939;SDS011;2995;-31.998;115.906;2023-07-02T00:16:18;1.87;;;1.20;;
5939;SDS011;2995;-31.998;115.906;2023-07-02T00:18:49;1.50;;;0.93;;
5939;SDS011;2995;-31.998;115.906;2023-07-02T00:21:21;1.80;;;1.40;;
5939;SDS011;2995;-31.998;115.906;2023-07-02T00:23:54;1.37;;;1.27;;
5939;SDS011;2995;-31.998;115.906;2023-07-02T00:26:26;1.40;;;1.27;;
5939;SDS011;2995;-31.998;115.906;2023-07-02T00:28:57;1.10;;;1.00;;
5939;SDS011;2995;-31.998;115.906;2023-07-02T00:31:32;3.17;;;1.10;;
5939;SDS011;2995;-31.998;115.906;2023-07-02T00:34:03;2.63;;;1.00;;
5939;SDS011;2995;-31.998;115.906;2023-07-02T00:36:34;1.37;;;0.90;;
5939;SDS011;2995;-31.998;115.906;2023-07-02T00:39:08;1.60;;;1.50;;
5939;SDS011;2995;-31.998;115.906;2023-07-02T00:41:39;1.53;;;1.00;;
5939;SDS011;2995;-31.998;115.906;2023-07-02T00:44:12;1.67;;;0.80;;
5939;SDS011;2995;-31.998;115.906;2023-07-02T00:46:46;1.00;;;0.80;;
5939;SDS011;2995;-31.998;115.906;2023-07-02T00:49:17;1.63;;;1.00;;
5939;SDS011;2995;-31.998;115.906;2023-07-02T00:51:48;2.03;;;0.90;;
5939;SDS011;2995;-31.998;115.906;2023-07-02T00:54:20;1.77;;;0.60;;
5939;SDS011;2995;-31.998;115.906;2023-07-02T00:56:51;0.90;;;0.80;;
5939;SDS011;2995;-31.998;115.906;2023-07-02T00:59:22;1.80;;;0.87;;
5939;SDS011;2995;-31.998;115.906;2023-07-02T01:01:56;0.90;;;0.70;;
5939;SDS011;2995;-31.998;115.906;2023-07-02T01:04:27;1.20;;;0.90;;
5939;SDS011;2995;-31.998;115.906;2023-07-02T01:06:59;3.43;;;1.00;;
5939;SDS011;2995;-31.998;115.906;2023-07-02T01:09:35;1.20;;;0.80;;
5939;SDS011;2995;-31.998;115.906;2023-07-02T01:12:07;1.60;;;1.10;;
5939;SDS011;2995;-31.998;115.906;2023-07-02T01:14:40;2.50;;;0.70;;
5939;SDS011;2995;-31.998;115.906;2023-07-02T01:17:15;1.10;;;0.90;;
5939;SDS011;2995;-31.998;115.906;2023-07-02T01:19:49;2.63;;;0.93;;
5939;SDS011;2995;-31.998;115.906;2023-07-02T01:22:25;0.80;;;0.67;;
5939;SDS011;2995;-31.998;115.906;2023-07-02T01:24:57;7.00;;;1.27;;
5939;SDS011;2995;-31.998;115.906;2023-07-02T01:27:28;1.00;;;0.70;;
5939;SDS011;2995;-31.998;115.906;2023-07-02T01:30:01;0.97;;;0.67;;
5939;SDS011;2995;-31.998;115.906;2023-07-02T01:32:33;2.03;;;0.80;;
5939;SDS011;2995;-31.998;115.906;2023-07-02T01:35:07;1.53;;;1.43;;
5939;SDS011;2995;-31.998;115.906;2023-07-02T01:37:38;0.90;;;0.70;;
5939;SDS011;2995;-31.998;115.906;2023-07-02T01:40:10;0.80;;;0.60;;
5939;SDS011;2995;-31.998;115.906;2023-07-02T01:42:41;0.90;;;0.70;;
5939;SDS011;2995;-31.998;115.906;2023-07-02T01:45:12;1.03;;;0.77;;
5939;SDS011;2995;-31.998;115.906;2023-07-02T01:47:44;3.17;;;0.70;;
5939;SDS011;2995;-31.998;115.906;2023-07-02T01:50:17;1.20;;;0.60;;
5939;SDS011;2995;-31.998;115.906;2023-07-02T01:52:48;2.63;;;0.70;;
5939;SDS011;2995;-31.998;115.906;2023-07-02T01:55:20;2.50;;;1.90;;
5939;SDS011;2995;-31.998;115.906;2023-07-02T01:57:51;1.17;;;0.70;;
5939;SDS011;2995;-31.998;115.906;2023-07-02T02:00:22;0.93;;;0.70;;
5939;SDS011;2995;-31.998;115.906;2023-07-02T02:02:53;2.27;;;0.80;;
5939;SDS011;2995;-31.998;115.906;2023-07-02T02:05:26;1.00;;;0.70;;
5939;SDS011;2995;-31.998;115.906;2023-07-02T02:07:57;3.63;;;0.70;;
5939;SDS011;2995;-31.998;115.906;2023-07-02T02:10:29;2.90;;;0.80;;
5939;SDS011;2995;-31.998;115.906;2023-07-02T02:13:00;0.80;;;0.60;;
5939;SDS011;2995;-31.998;115.906;2023-07-02T02:15:31;0.70;;;0.60;;
5939;SDS011;2995;-31.998;115.906;2023-07-02T02:18:03;2.63;;;0.70;;
5939;SDS011;2995;-31.998;115.906;2023-07-02T02:20:36;1.10;;;0.70;;
5939;SDS011;2995;-31.998;115.906;2023-07-02T02:23:07;1.20;;;0.70;;
5939;SDS011;2995;-31.998;115.906;2023-07-02T02:25:38;1.20;;;0.63;;
5939;SDS011;2995;-31.998;115.906;2023-07-02T02:28:10;1.03;;;0.70;;
5939;SDS011;2995;-31.998;115.906;2023-07-02T02:30:41;8.03;;;1.10;;
5939;SDS011;2995;-31.998;115.906;2023-07-02T02:33:12;2.73;;;0.80;;
5939;SDS011;2995;-31.998;115.906;2023-07-02T02:35:45;1.60;;;0.63;;
5939;SDS011;2995;-31.998;115.906;2023-07-02T02:38:17;2.00;;;0.57;;
5939;SDS011;2995;-31.998;115.906;2023-07-02T02:40:48;1.87;;;0.60;;
5939;SDS011;2995;-31.998;115.906;2023-07-02T02:43:19;1.57;;;0.57;;
5939;SDS011;2995;-31.998;115.906;2023-07-02T02:45:50;0.80;;;0.70;;
5939;SDS011;2995;-31.998;115.906;2023-07-02T02:48:21;1.47;;;0.73;;
5939;SDS011;2995;-31.998;115.906;2023-07-02T02:50:55;0.90;;;0.53;;
5939;SDS011;2995;-31.998;115.906;2023-07-02T02:53:27;1.00;;;0.70;;
5939;SDS011;2995;-31.998;115.906;2023-07-02T02:56:01;2.87;;;1.87;;
5939;SDS011;2995;-31.998;115.906;2023-07-02T02:58:35;3.13;;;0.73;;
5939;SDS011;2995;-31.998;115.906;2023-07-02T03:01:08;4.77;;;0.60;;
5939;SDS011;2995;-31.998;115.906;2023-07-02T03:03:42;1.87;;;0.90;;
5939;SDS011;2995;-31.998;115.906;2023-07-02T03:06:18;1.87;;;0.70;;
5939;SDS011;2995;-31.998;115.906;2023-07-02T03:08:52;0.90;;;0.60;;
5939;SDS011;2995;-31.998;115.906;2023-07-02T03:11:26;1.80;;;0.70;;
5939;SDS011;2995;-31.998;115.906;2023-07-02T03:14:00;1.50;;;0.60;;
5939;SDS011;2995;-31.998;115.906;2023-07-02T03:16:33;5.70;;;0.80;;
5939;SDS011;2995;-31.998;115.906;2023-07-02T03:19:04;1.00;;;0.60;;
5939;SDS011;2995;-31.998;115.906;2023-07-02T03:21:37;1.57;;;0.63;;
5939;SDS011;2995;-31.998;115.906;2023-07-02T03:24:09;0.83;;;0.60;;
5939;SDS011;2995;-31.998;115.906;2023-07-02T03:26:40;2.10;;;0.70;;
5939;SDS011;2995;-31.998;115.906;2023-07-02T03:29:12;1.17;;;0.63;;
5939;SDS011;2995;-31.998;115.906;2023-07-02T03:31:46;1.53;;;0.80;;
5939;SDS011;2995;-31.998;115.906;2023-07-02T03:34:17;2.73;;;0.60;;
5939;SDS011;2995;-31.998;115.906;2023-07-02T03:36:50;1.00;;;0.70;;
5939;SDS011;2995;-31.998;115.906;2023-07-02T03:39:21;0.80;;;0.60;;
5939;SDS011;2995;-31.998;115.906;2023-07-02T03:41:53;1.30;;;0.60;;
5939;SDS011;2995;-31.998;115.906;2023-07-02T03:44:24;2.03;;;0.60;;
5939;SDS011;2995;-31.998;115.906;2023-07-02T03:46:55;0.93;;;0.60;;
5939;SDS011;2995;-31.998;115.906;2023-07-02T03:49:26;1.83;;;0.80;;
5939;SDS011;2995;-31.998;115.906;2023-07-02T03:51:59;1.10;;;0.70;;
5939;SDS011;2995;-31.998;115.906;2023-07-02T03:54:31;1.80;;;0.60;;
5939;SDS011;2995;-31.998;115.906;2023-07-02T03:57:02;0.93;;;0.60;;
5939;SDS011;2995;-31.998;115.906;2023-07-02T03:59:34;1.07;;;0.60;;
5939;SDS011;2995;-31.998;115.906;2023-07-02T04:02:05;0.93;;;0.67;;
5939;SDS011;2995;-31.998;115.906;2023-07-02T04:04:36;0.80;;;0.60;;
5939;SDS011;2995;-31.998;115.906;2023-07-02T04:07:10;1.97;;;0.60;;
5939;SDS011;2995;-31.998;115.906;2023-07-02T04:09:43;1.00;;;0.70;;
5939;SDS011;2995;-31.998;115.906;2023-07-02T04:12:17;1.70;;;0.57;;
5939;SDS011;2995;-31.998;115.906;2023-07-02T04:14:51;1.17;;;0.60;;
5939;SDS011;2995;-31.998;115.906;2023-07-02T04:17:25;1.03;;;0.70;;
5939;SDS011;2995;-31.998;115.906;2023-07-02T04:19:59;1.57;;;0.80;;
5939;SDS011;2995;-31.998;115.906;2023-07-02T04:22:37;2.30;;;0.60;;
5939;SDS011;2995;-31.998;115.906;2023-07-02T04:25:11;1.03;;;0.60;;
5939;SDS011;2995;-31.998;115.906;2023-07-02T04:27:45;0.70;;;0.50;;
5939;SDS011;2995;-31.998;115.906;2023-07-02T04:30:23;0.80;;;0.53;;
5939;SDS011;2995;-31.998;115.906;2023-07-02T04:32:54;3.07;;;0.70;;
5939;SDS011;2995;-31.998;115.906;2023-07-02T04:35:25;1.00;;;0.70;;
5939;SDS011;2995;-31.998;115.906;2023-07-02T04:37:59;1.87;;;0.57;;
5939;SDS011;2995;-31.998;115.906;2023-07-02T04:40:30;1.50;;;0.60;;
5939;SDS011;2995;-31.998;115.906;2023-07-02T04:43:01;1.60;;;0.70;;
5939;SDS011;2995;-31.998;115.906;2023-07-02T04:45:36;1.77;;;0.53;;
5939;SDS011;2995;-31.998;115.906;2023-07-02T04:48:10;1.27;;;0.60;;
5939;SDS011;2995;-31.998;115.906;2023-07-02T04:50:42;1.40;;;0.60;;
5939;SDS011;2995;-31.998;115.906;2023-07-02T04:53:15;1.00;;;0.70;;
5939;SDS011;2995;-31.998;115.906;2023-07-02T04:55:46;1.20;;;0.70;;
5939;SDS011;2995;-31.998;115.906;2023-07-02T04:58:17;1.87;;;0.50;;
5939;SDS011;2995;-31.998;115.906;2023-07-02T05:00:49;0.80;;;0.60;;
5939;SDS011;2995;-31.998;115.906;2023-07-02T05:03:21;1.63;;;0.60;;
5939;SDS011;2995;-31.998;115.906;2023-07-02T05:05:53;3.43;;;0.70;;
5939;SDS011;2995;-31.998;115.906;2023-07-02T05:08:26;1.93;;;0.70;;
5939;SDS011;2995;-31.998;115.906;2023-07-02T05:10:57;1.30;;;0.60;;
5939;SDS011;2995;-31.998;115.906;2023-07-02T05:13:29;0.97;;;0.50;;
5939;SDS011;2995;-31.998;115.906;2023-07-02T05:16:00;1.13;;;0.60;;
5939;SDS011;2995;-31.998;115.906;2023-07-02T05:18:31;1.00;;;0.50;;
5939;SDS011;2995;-31.998;115.906;2023-07-02T05:21:03;1.20;;;0.60;;
5939;SDS011;2995;-31.998;115.906;2023-07-02T05:23:36;1.10;;;0.70;;
5939;SDS011;2995;-31.998;115.906;2023-07-02T05:26:07;2.03;;;0.70;;
5939;SDS011;2995;-31.998;115.906;2023-07-02T05:28:38;1.03;;;0.63;;
5939;SDS011;2995;-31.998;115.906;2023-07-02T05:31:10;0.97;;;0.67;;
5939;SDS011;2995;-31.998;115.906;2023-07-02T05:33:41;3.03;;;0.80;;
5939;SDS011;2995;-31.998;115.906;2023-07-02T05:36:13;1.03;;;0.70;;
5939;SDS011;2995;-31.998;115.906;2023-07-02T05:38:46;1.23;;;0.83;;
5939;SDS011;2995;-31.998;115.906;2023-07-02T05:41:20;0.90;;;0.60;;
5939;SDS011;2995;-31.998;115.906;2023-07-02T05:43:56;2.60;;;0.70;;
5939;SDS011;2995;-31.998;115.906;2023-07-02T05:46:28;0.97;;;0.70;;
5939;SDS011;2995;-31.998;115.906;2023-07-02T05:49:00;1.50;;;0.70;;
5939;SDS011;2995;-31.998;115.906;2023-07-02T05:51:33;1.83;;;0.60;;
5939;SDS011;2995;-31.998;115.906;2023-07-02T05:54:09;0.83;;;0.60;;
5939;SDS011;2995;-31.998;115.906;2023-07-02T05:56:43;1.37;;;0.70;;
5939;SDS011;2995;-31.998;115.906;2023-07-02T05:59:16;0.87;;;0.70;;
5939;SDS011;2995;-31.998;115.906;2023-07-02T06:01:50;1.00;;;0.70;;
5939;SDS011;2995;-31.998;115.906;2023-07-02T06:04:24;1.87;;;0.70;;
5939;SDS011;2995;-31.998;115.906;2023-07-02T06:06:57;1.00;;;0.70;;
5939;SDS011;2995;-31.998;115.906;2023-07-02T06:09:33;0.90;;;0.60;;
5939;SDS011;2995;-31.998;115.906;2023-07-02T06:12:06;1.00;;;0.60;;
5939;SDS011;2995;-31.998;115.906;2023-07-02T06:14:38;1.63;;;0.50;;
5939;SDS011;2995;-31.998;115.906;2023-07-02T06:17:09;1.87;;;0.70;;
5939;SDS011;2995;-31.998;115.906;2023-07-02T06:19:40;1.10;;;0.60;;
5939;SDS011;2995;-31.998;115.906;2023-07-02T06:22:12;1.30;;;0.70;;
5939;SDS011;2995;-31.998;115.906;2023-07-02T06:24:45;0.80;;;0.60;;
5939;SDS011;2995;-31.998;115.906;2023-07-02T06:27:16;0.80;;;0.50;;
5939;SDS011;2995;-31.998;115.906;2023-07-02T06:29:49;0.70;;;0.60;;
5939;SDS011;2995;-31.998;115.906;2023-07-02T06:32:22;3.10;;;0.60;;
5939;SDS011;2995;-31.998;115.906;2023-07-02T06:34:53;1.27;;;0.63;;
5939;SDS011;2995;-31.998;115.906;2023-07-02T06:37:24;1.17;;;0.60;;
5939;SDS011;2995;-31.998;115.906;2023-07-02T06:39:58;2.10;;;0.60;;
5939;SDS011;2995;-31.998;115.906;2023-07-02T06:42:29;0.90;;;0.60;;
5939;SDS011;2995;-31.998;115.906;2023-07-02T06:45:02;0.70;;;0.50;;
5939;SDS011;2995;-31.998;115.906;2023-07-02T06:47:33;2.40;;;0.73;;
5939;SDS011;2995;-31.998;115.906;2023-07-02T06:50:06;1.30;;;0.70;;
5939;SDS011;2995;-31.998;115.906;2023-07-02T06:52:39;2.10;;;0.73;;
5939;SDS011;2995;-31.998;115.906;2023-07-02T06:55:16;2.67;;;0.90;;
5939;SDS011;2995;-31.998;115.906;2023-07-02T06:57:50;1.20;;;0.73;;
5939;SDS011;2995;-31.998;115.906;2023-07-02T07:00:24;2.10;;;0.77;;
5939;SDS011;2995;-31.998;115.906;2023-07-02T07:02:55;0.90;;;0.60;;
5939;SDS011;2995;-31.998;115.906;2023-07-02T07:05:26;3.00;;;0.70;;
5939;SDS011;2995;-31.998;115.906;2023-07-02T07:07:58;2.00;;;0.73;;
5939;SDS011;2995;-31.998;115.906;2023-07-02T07:10:34;1.50;;;1.00;;
5939;SDS011;2995;-31.998;115.906;2023-07-02T07:13:05;2.23;;;0.80;;
5939;SDS011;2995;-31.998;115.906;2023-07-02T07:15:36;5.50;;;3.20;;
5939;SDS011;2995;-31.998;115.906;2023-07-02T07:18:08;3.57;;;0.60;;
5939;SDS011;2995;-31.998;115.906;2023-07-02T07:20:40;0.80;;;0.60;;
5939;SDS011;2995;-31.998;115.906;2023-07-02T07:23:12;0.80;;;0.70;;
5939;SDS011;2995;-31.998;115.906;2023-07-02T07:25:46;0.97;;;0.70;;
5939;SDS011;2995;-31.998;115.906;2023-07-02T07:28:17;2.83;;;0.67;;
5939;SDS011;2995;-31.998;115.906;2023-07-02T07:30:49;0.97;;;0.70;;
5939;SDS011;2995;-31.998;115.906;2023-07-02T07:33:21;1.00;;;0.60;;
5939;SDS011;2995;-31.998;115.906;2023-07-02T07:35:54;0.80;;;0.60;;
5939;SDS011;2995;-31.998;115.906;2023-07-02T07:38:26;1.87;;;0.67;;
5939;SDS011;2995;-31.998;115.906;2023-07-02T07:40:59;0.80;;;0.50;;
5939;SDS011;2995;-31.998;115.906;2023-07-02T07:43:30;2.63;;;0.70;;
5939;SDS011;2995;-31.998;115.906;2023-07-02T07:46:04;5.00;;;0.70;;
5939;SDS011;2995;-31.998;115.906;2023-07-02T07:48:37;1.40;;;0.70;;
5939;SDS011;2995;-31.998;115.906;2023-07-02T07:51:11;4.10;;;0.70;;
5939;SDS011;2995;-31.998;115.906;2023-07-02T07:53:44;2.13;;;0.80;;
5939;SDS011;2995;-31.998;115.906;2023-07-02T07:56:20;1.00;;;0.67;;
5939;SDS011;2995;-31.998;115.906;2023-07-02T07:58:53;0.90;;;0.60;;
5939;SDS011;2995;-31.998;115.906;2023-07-02T08:01:27;1.00;;;0.60;;
5939;SDS011;2995;-31.998;115.906;2023-07-02T08:04:01;0.90;;;0.60;;
5939;SDS011;2995;-31.998;115.906;2023-07-02T08:06:32;1.57;;;0.80;;
5939;SDS011;2995;-31.998;115.906;2023-07-02T08:09:03;1.30;;;0.80;;
5939;SDS011;2995;-31.998;115.906;2023-07-02T08:11:37;2.73;;;0.70;;
5939;SDS011;2995;-31.998;115.906;2023-07-02T08:14:08;1.00;;;0.60;;
5939;SDS011;2995;-31.998;115.906;2023-07-02T08:16:39;1.53;;;0.77;;
5939;SDS011;2995;-31.998;115.906;2023-07-02T08:19:10;1.00;;;0.80;;
5939;SDS011;2995;-31.998;115.906;2023-07-02T08:21:42;2.10;;;1.30;;
5939;SDS011;2995;-31.998;115.906;2023-07-02T08:24:13;1.93;;;1.20;;
5939;SDS011;2995;-31.998;115.906;2023-07-02T08:26:46;1.93;;;1.30;;
5939;SDS011;2995;-31.998;115.906;2023-07-02T08:29:17;1.70;;;1.47;;
5939;SDS011;2995;-31.998;115.906;2023-07-02T08:31:48;1.50;;;1.40;;
5939;SDS011;2995;-31.998;115.906;2023-07-02T08:34:20;1.60;;;1.40;;
5939;SDS011;2995;-31.998;115.906;2023-07-02T08:36:51;3.07;;;1.63;;
5939;SDS011;2995;-31.998;115.906;2023-07-02T08:39:22;3.93;;;1.93;;
5939;SDS011;2995;-31.998;115.906;2023-07-02T08:41:55;6.13;;;2.40;;
5939;SDS011;2995;-31.998;115.906;2023-07-02T08:44:27;5.73;;;2.60;;
5939;SDS011;2995;-31.998;115.906;2023-07-02T08:46:58;3.70;;;2.70;;
5939;SDS011;2995;-31.998;115.906;2023-07-02T08:49:30;3.67;;;3.10;;
5939;SDS011;2995;-31.998;115.906;2023-07-02T08:52:02;3.47;;;3.17;;
5939;SDS011;2995;-31.998;115.906;2023-07-02T08:54:33;4.33;;;3.00;;
5939;SDS011;2995;-31.998;115.906;2023-07-02T08:57:08;3.67;;;2.70;;
5939;SDS011;2995;-31.998;115.906;2023-07-02T08:59:39;3.80;;;2.73;;
5939;SDS011;2995;-31.998;115.906;2023-07-02T09:02:11;4.30;;;3.37;;
5939;SDS011;2995;-31.998;115.906;2023-07-02T09:04:42;3.40;;;3.10;;
5939;SDS011;2995;-31.998;115.906;2023-07-02T09:07:13;4.30;;;3.90;;
5939;SDS011;2995;-31.998;115.906;2023-07-02T09:09:44;6.13;;;4.43;;
5939;SDS011;2995;-31.998;115.906;2023-07-02T09:12:25;8.87;;;4.47;;
5939;SDS011;2995;-31.998;115.906;2023-07-02T09:14:57;4.43;;;3.80;;
5939;SDS011;2995;-31.998;115.906;2023-07-02T09:17:30;4.07;;;3.77;;
5939;SDS011;2995;-31.998;115.906;2023-07-02T09:20:03;4.57;;;3.80;;
5939;SDS011;2995;-31.998;115.906;2023-07-02T09:22:35;5.23;;;4.30;;
5939;SDS011;2995;-31.998;115.906;2023-07-02T09:25:10;4.20;;;3.80;;
5939;SDS011;2995;-31.998;115.906;2023-07-02T09:27:44;4.90;;;4.00;;
5939;SDS011;2995;-31.998;115.906;2023-07-02T09:30:15;6.60;;;4.17;;
5939;SDS011;2995;-31.998;115.906;2023-07-02T09:32:46;5.57;;;4.47;;
5939;SDS011;2995;-31.998;115.906;2023-07-02T09:35:19;4.33;;;3.93;;
5939;SDS011;2995;-31.998;115.906;2023-07-02T09:37:50;4.40;;;3.43;;
5939;SDS011;2995;-31.998;115.906;2023-07-02T09:40:21;3.53;;;3.23;;
5939;SDS011;2995;-31.998;115.906;2023-07-02T09:42:57;3.67;;;3.30;;
5939;SDS011;2995;-31.998;115.906;2023-07-02T09:45:28;2.90;;;2.60;;
5939;SDS011;2995;-31.998;115.906;2023-07-02T09:48:00;3.13;;;2.60;;
5939;SDS011;2995;-31.998;115.906;2023-07-02T09:50:32;5.10;;;2.30;;
5939;SDS011;2995;-31.998;115.906;2023-07-02T09:53:04;2.33;;;1.77;;
5939;SDS011;2995;-31.998;115.906;2023-07-02T09:55:36;2.20;;;2.00;;
5939;SDS011;2995;-31.998;115.906;2023-07-02T09:58:10;1.90;;;1.60;;
5939;SDS011;2995;-31.998;115.906;2023-07-02T10:00:41;1.83;;;1.73;;
5939;SDS011;2995;-31.998;115.906;2023-07-02T10:03:12;2.10;;;1.90;;
5939;SDS011;2995;-31.998;115.906;2023-07-02T10:05:44;4.00;;;1.67;;
5939;SDS011;2995;-31.998;115.906;2023-07-02T10:08:15;3.10;;;1.30;;
5939;SDS011;2995;-31.998;115.906;2023-07-02T10:10:49;2.27;;;1.23;;
5939;SDS011;2995;-31.998;115.906;2023-07-02T10:13:28;1.50;;;1.40;;
5939;SDS011;2995;-31.998;115.906;2023-07-02T10:16:03;5.03;;;1.53;;
5939;SDS011;2995;-31.998;115.906;2023-07-02T10:18:35;2.20;;;1.93;;
5939;SDS011;2995;-31.998;115.906;2023-07-02T10:21:16;4.33;;;3.73;;
5939;SDS011;2995;-31.998;115.906;2023-07-02T10:23:47;4.30;;;3.10;;
5939;SDS011;2995;-31.998;115.906;2023-07-02T10:26:19;6.70;;;4.13;;
5939;SDS011;2995;-31.998;115.906;2023-07-02T10:29:00;5.60;;;3.43;;
5939;SDS011;2995;-31.998;115.906;2023-07-02T10:31:32;4.57;;;3.03;;
5939;SDS011;2995;-31.998;115.906;2023-07-02T10:34:03;3.90;;;3.20;;
5939;SDS011;2995;-31.998;115.906;2023-07-02T10:36:35;7.20;;;4.60;;
5939;SDS011;2995;-31.998;115.906;2023-07-02T10:39:06;4.20;;;3.80;;
5939;SDS011;2995;-31.998;115.906;2023-07-02T10:41:37;4.73;;;2.80;;
5939;SDS011;2995;-31.998;115.906;2023-07-02T10:44:10;6.60;;;4.40;;
5939;SDS011;2995;-31.998;115.906;2023-07-02T10:46:45;6.60;;;5.60;;
5939;SDS011;2995;-31.998;115.906;2023-07-02T10:49:17;6.67;;;5.10;;
5939;SDS011;2995;-31.998;115.906;2023-07-02T10:51:57;4.00;;;3.70;;
5939;SDS011;2995;-31.998;115.906;2023-07-02T10:54:38;3.83;;;3.23;;
5939;SDS011;2995;-31.998;115.906;2023-07-02T10:57:10;4.07;;;3.67;;
5939;SDS011;2995;-31.998;115.906;2023-07-02T10:59:48;4.60;;;3.20;;
5939;SDS011;2995;-31.998;115.906;2023-07-02T11:02:19;5.30;;;4.70;;
5939;SDS011;2995;-31.998;115.906;2023-07-02T11:04:51;7.00;;;5.47;;
5939;SDS011;2995;-31.998;115.906;2023-07-02T11:07:22;11.30;;;7.10;;
5939;SDS011;2995;-31.998;115.906;2023-07-02T11:09:54;8.23;;;6.93;;
5939;SDS011;2995;-31.998;115.906;2023-07-02T11:12:28;7.20;;;5.60;;
5939;SDS011;2995;-31.998;115.906;2023-07-02T11:15:12;9.03;;;4.33;;
5939;SDS011;2995;-31.998;115.906;2023-07-02T11:17:47;5.27;;;4.77;;
5939;SDS011;2995;-31.998;115.906;2023-07-02T11:20:19;6.70;;;5.10;;
5939;SDS011;2995;-31.998;115.906;2023-07-02T11:22:50;7.90;;;4.77;;
5939;SDS011;2995;-31.998;115.906;2023-07-02T11:25:21;5.73;;;4.90;;
5939;SDS011;2995;-31.998;115.906;2023-07-02T11:28:02;5.90;;;4.30;;
5939;SDS011;2995;-31.998;115.906;2023-07-02T11:30:44;9.13;;;3.90;;
5939;SDS011;2995;-31.998;115.906;2023-07-02T11:33:15;4.33;;;3.63;;
5939;SDS011;2995;-31.998;115.906;2023-07-02T11:35:47;5.00;;;3.80;;
5939;SDS011;2995;-31.998;115.906;2023-07-02T11:38:18;7.03;;;3.87;;
5939;SDS011;2995;-31.998;115.906;2023-07-02T11:40:49;7.13;;;3.90;;
5939;SDS011;2995;-31.998;115.906;2023-07-02T11:43:20;7.33;;;4.50;;
5939;SDS011;2995;-31.998;115.906;2023-07-02T11:45:54;7.03;;;4.80;;
5939;SDS011;2995;-31.998;115.906;2023-07-02T11:48:25;7.77;;;5.87;;
5939;SDS011;2995;-31.998;115.906;2023-07-02T11:50:56;8.03;;;4.93;;
5939;SDS011;2995;-31.998;115.906;2023-07-02T11:53:28;6.57;;;5.10;;
5939;SDS011;2995;-31.998;115.906;2023-07-02T11:55:59;8.00;;;5.10;;
5939;SDS011;2995;-31.998;115.906;2023-07-02T11:58:30;6.50;;;4.20;;
5939;SDS011;2995;-31.998;115.906;2023-07-02T12:01:05;5.93;;;5.10;;
5939;SDS011;2995;-31.998;115.906;2023-07-02T12:03:36;7.13;;;4.93;;
5939;SDS011;2995;-31.998;115.906;2023-07-02T12:06:08;11.23;;;6.90;;
5939;SDS011;2995;-31.998;115.906;2023-07-02T12:08:39;8.77;;;6.80;;
5939;SDS011;2995;-31.998;115.906;2023-07-02T12:11:11;10.40;;;7.40;;
5939;SDS011;2995;-31.998;115.906;2023-07-02T12:13:42;12.23;;;6.97;;
5939;SDS011;2995;-31.998;115.906;2023-07-02T12:16:15;10.93;;;7.83;;
5939;SDS011;2995;-31.998;115.906;2023-07-02T12:18:46;9.97;;;8.30;;
5939;SDS011;2995;-31.998;115.906;2023-07-02T12:21:18;9.13;;;7.23;;
5939;SDS011;2995;-31.998;115.906;2023-07-02T12:23:49;12.27;;;7.60;;
5939;SDS011;2995;-31.998;115.906;2023-07-02T12:26:20;8.40;;;6.87;;
5939;SDS011;2995;-31.998;115.906;2023-07-02T12:28:51;8.13;;;7.00;;
5939;SDS011;2995;-31.998;115.906;2023-07-02T12:31:24;10.13;;;7.33;;
5939;SDS011;2995;-31.998;115.906;2023-07-02T12:33:56;7.93;;;7.10;;
5939;SDS011;2995;-31.998;115.906;2023-07-02T12:36:27;10.70;;;7.63;;
5939;SDS011;2995;-31.998;115.906;2023-07-02T12:38:58;10.23;;;8.37;;
5939;SDS011;2995;-31.998;115.906;2023-07-02T12:41:30;10.63;;;8.60;;
5939;SDS011;2995;-31.998;115.906;2023-07-02T12:44:02;8.77;;;7.10;;
5939;SDS011;2995;-31.998;115.906;2023-07-02T12:46:35;9.83;;;7.20;;
5939;SDS011;2995;-31.998;115.906;2023-07-02T12:49:07;11.50;;;7.60;;
5939;SDS011;2995;-31.998;115.906;2023-07-02T12:51:38;10.07;;;9.00;;
5939;SDS011;2995;-31.998;115.906;2023-07-02T12:54:09;11.40;;;8.37;;
5939;SDS011;2995;-31.998;115.906;2023-07-02T12:56:40;9.50;;;7.77;;
5939;SDS011;2995;-31.998;115.906;2023-07-02T12:59:12;8.67;;;7.20;;
5939;SDS011;2995;-31.998;115.906;2023-07-02T13:01:46;8.83;;;7.93;;
5939;SDS011;2995;-31.998;115.906;2023-07-02T13:04:18;8.43;;;7.53;;
5939;SDS011;2995;-31.998;115.906;2023-07-02T13:06:49;12.10;;;7.97;;
5939;SDS011;2995;-31.998;115.906;2023-07-02T13:09:20;9.90;;;8.77;;
5939;SDS011;2995;-31.998;115.906;2023-07-02T13:11:51;10.90;;;8.23;;
5939;SDS011;2995;-31.998;115.906;2023-07-02T13:14:23;15.50;;;10.13;;
5939;SDS011;2995;-31.998;115.906;2023-07-02T13:16:56;18.40;;;11.47;;
5939;SDS011;2995;-31.998;115.906;2023-07-02T13:19:29;18.57;;;10.07;;
5939;SDS011;2995;-31.998;115.906;2023-07-02T13:22:01;19.40;;;11.93;;
5939;SDS011;2995;-31.998;115.906;2023-07-02T13:24:33;16.23;;;11.50;;
5939;SDS011;2995;-31.998;115.906;2023-07-02T13:27:06;17.27;;;11.53;;
5939;SDS011;2995;-31.998;115.906;2023-07-02T13:29:43;13.97;;;9.47;;
5939;SDS011;2995;-31.998;115.906;2023-07-02T13:32:16;15.90;;;9.30;;
5939;SDS011;2995;-31.998;115.906;2023-07-02T13:34:47;17.97;;;9.13;;
5939;SDS011;2995;-31.998;115.906;2023-07-02T13:37:18;14.23;;;9.47;;
5939;SDS011;2995;-31.998;115.906;2023-07-02T13:39:50;17.23;;;9.20;;
5939;SDS011;2995;-31.998;115.906;2023-07-02T13:42:21;14.60;;;8.47;;
5939;SDS011;2995;-31.998;115.906;2023-07-02T13:44:52;13.97;;;8.00;;
5939;SDS011;2995;-31.998;115.906;2023-07-02T13:47:25;11.90;;;7.50;;
5939;SDS011;2995;-31.998;115.906;2023-07-02T13:49:57;15.87;;;8.70;;
5939;SDS011;2995;-31.998;115.906;2023-07-02T13:52:28;10.43;;;8.07;;
5939;SDS011;2995;-31.998;115.906;2023-07-02T13:54:59;9.20;;;6.87;;
5939;SDS011;2995;-31.998;115.906;2023-07-02T13:57:30;15.23;;;8.17;;
5939;SDS011;2995;-31.998;115.906;2023-07-02T14:00:05;12.40;;;7.27;;
5939;SDS011;2995;-31.998;115.906;2023-07-02T14:02:36;12.33;;;6.40;;
5939;SDS011;2995;-31.998;115.906;2023-07-02T14:05:08;13.27;;;6.53;;
5939;SDS011;2995;-31.998;115.906;2023-07-02T14:07:39;9.03;;;6.73;;
5939;SDS011;2995;-31.998;115.906;2023-07-02T14:10:10;9.93;;;6.07;;
5939;SDS011;2995;-31.998;115.906;2023-07-02T14:12:42;9.43;;;5.60;;
5939;SDS011;2995;-31.998;115.906;2023-07-02T14:15:15;8.50;;;5.63;;
5939;SDS011;2995;-31.998;115.906;2023-07-02T14:17:46;7.50;;;6.13;;
5939;SDS011;2995;-31.998;115.906;2023-07-02T14:20:18;9.43;;;6.00;;
5939;SDS011;2995;-31.998;115.906;2023-07-02T14:22:49;6.50;;;4.47;;
5939;SDS011;2995;-31.998;115.906;2023-07-02T14:25:20;9.90;;;6.20;;
5939;SDS011;2995;-31.998;115.906;2023-07-02T14:27:51;9.40;;;5.57;;
5939;SDS011;2995;-31.998;115.906;2023-07-02T14:30:24;7.27;;;5.33;;
5939;SDS011;2995;-31.998;115.906;2023-07-02T14:32:56;9.27;;;5.63;;
5939;SDS011;2995;-31.998;115.906;2023-07-02T14:35:27;8.80;;;5.27;;
5939;SDS011;2995;-31.998;115.906;2023-07-02T14:37:58;8.27;;;5.97;;
5939;SDS011;2995;-31.998;115.906;2023-07-02T14:40:31;6.90;;;5.27;;
5939;SDS011;2995;-31.998;115.906;2023-07-02T14:43:02;8.10;;;5.60;;
5939;SDS011;2995;-31.998;115.906;2023-07-02T14:45:35;6.93;;;4.93;;
5939;SDS011;2995;-31.998;115.906;2023-07-02T14:48:15;7.40;;;4.97;;
5939;SDS011;2995;-31.998;115.906;2023-07-02T14:50:48;13.30;;;5.23;;
5939;SDS011;2995;-31.998;115.906;2023-07-02T14:53:20;6.83;;;4.77;;
5939;SDS011;2995;-31.998;115.906;2023-07-02T14:55:53;8.33;;;4.80;;
5939;SDS011;2995;-31.998;115.906;2023-07-02T14:58:26;5.80;;;4.27;;
5939;SDS011;2995;-31.998;115.906;2023-07-02T15:01:00;7.47;;;4.90;;
5939;SDS011;2995;-31.998;115.906;2023-07-02T15:03:31;5.67;;;3.70;;